Time;durP1;ratioP1;P1;durP2;ratioP2;P2;SDS_P1;SDS_P2;PMS_P1;PMS_P2;Temp;Humidity;BMP_temperature;BMP_pressure;BME280_temperature;BME280_humidity;BME280_pressure;Samples;Min_cycle;Max_cycle;Signal;HPM_P1;HPM_P2
2023/10/17 00:00:26;;;;;;;7.30;4.70;;;;;;;;;;523570;28;807;-71
2023/10/17 00:00:45;;;;;;;7.07;4.13;;;;;;;;;;523099;28;885;-70
2023/10/17 00:01:00;;;;;;;6.00;4.20;;;;;;;;;;523647;28;989;-70
2023/10/17 00:01:19;;;;;;;5.67;4.40;;;;;;;;;;523620;28;819;-70
2023/10/17 00:01:34;;;;;;;6.72;4.72;;;;;;;;;;524096;28;897;-70
2023/10/17 00:01:54;;;;;;;5.93;4.67;;;;;;;;;;524852;28;1245;-70
2023/10/17 00:02:13;;;;;;;5.78;4.32;;;;;;;;;;521537;28;1175;-70
2023/10/17 00:02:28;;;;;;;6.22;4.50;;;;;;;;;;518845;28;1779;-70
2023/10/17 00:02:43;;;;;;;6.23;4.70;;;;;;;;;;519713;28;1809;-70
2023/10/17 00:02:59;;;;;;;5.97;4.50;;;;;;;;;;519712;28;1567;-70
2023/10/17 00:03:14;;;;;;;5.90;4.47;;;;;;;;;;517776;28;1192;-70
2023/10/17 00:03:30;;;;;;;6.33;4.50;;;;;;;;;;517680;28;1116;-71
2023/10/17 00:03:46;;;;;;;6.57;4.65;;;;;;;;;;517634;28;1175;-71
2023/10/17 00:04:41;;;;;;;6.88;4.80;;;;;;;;;;515709;28;1250;-70
2023/10/17 00:04:48;;;;;;;5.93;4.70;;;;;;;;;;518493;28;1119;-71
2023/10/17 00:04:56;;;;;;;7.07;4.85;;;;;;;;;;519440;28;1128;-70
2023/10/17 00:05:14;;;;;;;7.18;5.00;;;;;;;;;;523569;28;857;-70
2023/10/17 00:05:29;;;;;;;7.17;4.90;;;;;;;;;;521996;28;1283;-70
2023/10/17 00:05:45;;;;;;;7.85;5.00;;;;;;;;;;521851;28;1068;-70
2023/10/17 00:06:01;;;;;;;7.17;4.93;;;;;;;;;;519100;28;1227;-70
2023/10/17 00:06:17;;;;;;;6.25;4.78;;;;;;;;;;519402;28;1558;-70
2023/10/17 00:06:32;;;;;;;6.10;4.93;;;;;;;;;;519568;28;1351;-70
2023/10/17 00:06:50;;;;;;;6.20;4.80;;;;;;;;;;519746;28;1036;-70
2023/10/17 00:07:05;;;;;;;6.60;4.60;;;;;;;;;;519806;28;870;-70
2023/10/17 00:07:20;;;;;;;6.30;4.50;;;;;;;;;;520543;28;878;-70
2023/10/17 00:07:36;;;;;;;6.05;4.68;;;;;;;;;;521955;28;1076;-70
2023/10/17 00:07:51;;;;;;;6.20;4.87;;;;;;;;;;522386;28;1103;-70
2023/10/17 00:08:09;;;;;;;7.07;5.00;;;;;;;;;;523914;28;924;-70
2023/10/17 00:08:27;;;;;;;7.10;4.82;;;;;;;;;;523825;28;952;-70
2023/10/17 00:08:44;;;;;;;6.07;4.38;;;;;;;;;;523905;28;853;-71
2023/10/17 00:09:05;;;;;;;7.10;4.70;;;;;;;;;;523941;28;877;-70
2023/10/17 00:09:24;;;;;;;6.55;4.53;;;;;;;;;;523846;28;866;-70
2023/10/17 00:09:39;;;;;;;6.45;4.60;;;;;;;;;;523963;28;1066;-70
2023/10/17 00:09:58;;;;;;;6.55;4.70;;;;;;;;;;523912;28;1094;-71
2023/10/17 00:10:15;;;;;;;6.70;4.78;;;;;;;;;;523289;28;1758;-71
2023/10/17 00:10:41;;;;;;;6.03;4.50;;;;;;;;;;524276;28;1097;-71
2023/10/17 00:10:57;;;;;;;6.63;4.63;;;;;;;;;;523314;28;1084;-70
2023/10/17 00:11:21;;;;;;;6.75;4.90;;;;;;;;;;524042;28;955;-70
2023/10/17 00:12:25;;;;;;;7.57;5.10;;;;;;;;;;526190;28;861;-71
2023/10/17 00:12:25;;;;;;;;;;;;;;;;;;;;;
2023/10/17 00:12:39;;;;;;;6.13;4.97;;;;;;;;;;523336;28;1183;-71
2023/10/17 00:13:05;;;;;;;6.20;4.93;;;;;;;;;;524514;28;1118;-70
2023/10/17 00:13:59;;;;;;;6.53;4.72;;;;;;;;;;523911;28;1071;-70
2023/10/17 00:14:15;;;;;;;7.53;4.63;;;;;;;;;;521516;28;1327;-70
2023/10/17 00:14:35;;;;;;;7.77;4.97;;;;;;;;;;522036;28;747;-70
2023/10/17 00:15:27;;;;;;;7.90;4.97;;;;;;;;;;521935;28;692;-71
2023/10/17 00:15:44;;;;;;;7.53;4.85;;;;;;;;;;521868;28;1711;-71
2023/10/17 00:16:00;;;;;;;7.13;4.82;;;;;;;;;;521552;28;1261;-70
2023/10/17 00:16:17;;;;;;;6.53;4.57;;;;;;;;;;523673;28;885;-70
2023/10/17 00:16:33;;;;;;;6.05;4.40;;;;;;;;;;523939;28;858;-70
2023/10/17 00:16:48;;;;;;;6.03;4.57;;;;;;;;;;521326;28;1336;-70
2023/10/17 00:17:05;;;;;;;6.63;5.00;;;;;;;;;;521867;28;1047;-70
2023/10/17 00:17:21;;;;;;;6.57;4.93;;;;;;;;;;521857;28;803;-70
2023/10/17 00:17:36;;;;;;;7.07;5.13;;;;;;;;;;521987;28;874;-70
2023/10/17 00:17:54;;;;;;;6.77;4.90;;;;;;;;;;521840;28;1148;-71
2023/10/17 00:18:11;;;;;;;7.38;4.80;;;;;;;;;;519811;28;1149;-70
2023/10/17 00:18:27;;;;;;;7.50;5.20;;;;;;;;;;519932;28;882;-70
2023/10/17 00:18:42;;;;;;;7.10;5.18;;;;;;;;;;520848;28;1661;-70
2023/10/17 00:19:04;;;;;;;7.37;5.20;;;;;;;;;;520735;28;1925;-71
2023/10/17 00:19:25;;;;;;;6.65;5.10;;;;;;;;;;521860;28;964;-70
2023/10/17 00:19:41;;;;;;;7.18;5.15;;;;;;;;;;523873;28;870;-70
2023/10/17 00:19:57;;;;;;;8.45;5.53;;;;;;;;;;522055;28;1028;-70
2023/10/17 00:20:17;;;;;;;8.50;5.32;;;;;;;;;;525669;28;924;-70
2023/10/17 00:20:37;;;;;;;7.38;5.00;;;;;;;;;;525945;28;948;-70
2023/10/17 00:20:53;;;;;;;7.80;5.18;;;;;;;;;;524590;28;941;-71
2023/10/17 00:21:27;;;;;;;7.53;5.30;;;;;;;;;;521050;28;1196;-70
2023/10/17 00:21:42;;;;;;;6.90;5.18;;;;;;;;;;521757;28;897;-70
2023/10/17 00:21:59;;;;;;;6.97;5.10;;;;;;;;;;519609;28;1269;-70
2023/10/17 00:22:18;;;;;;;7.28;4.88;;;;;;;;;;519680;28;870;-70
2023/10/17 00:22:35;;;;;;;7.05;5.03;;;;;;;;;;519729;28;819;-70
2023/10/17 00:22:53;;;;;;;7.03;5.00;;;;;;;;;;519794;28;882;-71
2023/10/17 00:23:08;;;;;;;6.80;4.85;;;;;;;;;;521501;28;913;-70
2023/10/17 00:23:24;;;;;;;6.67;4.80;;;;;;;;;;519865;28;1749;-70
2023/10/17 00:23:39;;;;;;;6.32;4.78;;;;;;;;;;519836;28;905;-70
2023/10/17 00:23:55;;;;;;;5.77;4.80;;;;;;;;;;520895;28;1083;-70
2023/10/17 00:24:10;;;;;;;6.40;4.65;;;;;;;;;;521945;28;1291;-70
2023/10/17 00:24:25;;;;;;;7.03;4.80;;;;;;;;;;522015;28;763;-70
2023/10/17 00:24:45;;;;;;;6.37;5.03;;;;;;;;;;521946;28;1040;-70
2023/10/17 00:25:09;;;;;;;6.20;4.88;;;;;;;;;;521856;28;914;-70
2023/10/17 00:25:26;;;;;;;7.20;4.70;;;;;;;;;;523893;28;890;-70
2023/10/17 00:25:45;;;;;;;7.07;4.90;;;;;;;;;;523779;28;2038;-70
2023/10/17 00:26:03;;;;;;;6.65;4.82;;;;;;;;;;521494;28;877;-71
2023/10/17 00:26:18;;;;;;;6.05;4.72;;;;;;;;;;521901;28;839;-71
2023/10/17 00:26:39;;;;;;;6.77;4.90;;;;;;;;;;521994;28;881;-70
2023/10/17 00:26:54;;;;;;;7.38;5.15;;;;;;;;;;521829;28;1091;-71
2023/10/17 00:27:09;;;;;;;6.90;5.17;;;;;;;;;;521649;28;930;-71
2023/10/17 00:27:24;;;;;;;7.17;5.23;;;;;;;;;;521866;28;886;-70
2023/10/17 00:27:40;;;;;;;6.68;5.10;;;;;;;;;;521830;28;1425;-71
2023/10/17 00:27:55;;;;;;;5.80;4.73;;;;;;;;;;523363;28;1102;-71
2023/10/17 00:28:10;;;;;;;5.93;4.50;;;;;;;;;;524054;28;1095;-70
2023/10/17 00:28:26;;;;;;;6.83;4.60;;;;;;;;;;523920;28;743;-70
2023/10/17 00:28:41;;;;;;;6.85;4.80;;;;;;;;;;524101;28;806;-70
2023/10/17 00:28:56;;;;;;;6.83;5.10;;;;;;;;;;523864;28;1167;-70
2023/10/17 00:29:12;;;;;;;6.80;5.10;;;;;;;;;;521693;28;1152;-71
2023/10/17 00:29:28;;;;;;;6.50;5.10;;;;;;;;;;521356;28;1755;-70
2023/10/17 00:29:43;;;;;;;6.22;5.13;;;;;;;;;;522812;28;929;-70
2023/10/17 00:29:59;;;;;;;6.40;5.13;;;;;;;;;;525073;28;1208;-70
2023/10/17 00:30:17;;;;;;;7.68;5.40;;;;;;;;;;530286;27;1476;-70
2023/10/17 00:30:32;;;;;;;7.22;5.30;;;;;;;;;;527327;28;1450;-70
2023/10/17 00:30:51;;;;;;;6.97;5.40;;;;;;;;;;526430;28;981;-70
2023/10/17 00:31:07;;;;;;;6.40;5.18;;;;;;;;;;527687;28;873;-71
2023/10/17 00:31:22;;;;;;;6.97;4.90;;;;;;;;;;528063;28;860;-70
2023/10/17 00:31:37;;;;;;;7.80;5.10;;;;;;;;;;528063;28;1001;-70
2023/10/17 00:31:53;;;;;;;7.05;5.10;;;;;;;;;;528157;28;1192;-71
2023/10/17 00:32:09;;;;;;;6.43;4.97;;;;;;;;;;527315;28;1698;-71
2023/10/17 00:32:25;;;;;;;6.25;4.97;;;;;;;;;;527079;28;834;-70
2023/10/17 00:32:42;;;;;;;6.38;4.80;;;;;;;;;;528246;28;932;-70
2023/10/17 00:32:57;;;;;;;6.72;4.80;;;;;;;;;;529934;27;1027;-71
2023/10/17 00:33:15;;;;;;;7.22;5.10;;;;;;;;;;530336;27;1966;-70
2023/10/17 00:33:32;;;;;;;7.43;5.07;;;;;;;;;;530013;27;916;-71
2023/10/17 00:33:57;;;;;;;7.80;5.40;;;;;;;;;;530337;27;1173;-70
2023/10/17 00:34:13;;;;;;;7.82;5.38;;;;;;;;;;530522;27;924;-71
2023/10/17 00:34:28;;;;;;;8.37;5.17;;;;;;;;;;530403;27;802;-70
2023/10/17 00:34:46;;;;;;;9.53;5.17;;;;;;;;;;530346;27;1279;-70
2023/10/17 00:35:09;;;;;;;9.13;5.20;;;;;;;;;;528348;28;1157;-71
2023/10/17 00:35:26;;;;;;;8.10;5.40;;;;;;;;;;528071;28;783;-71
2023/10/17 00:35:50;;;;;;;8.00;5.28;;;;;;;;;;528326;28;925;-70
2023/10/17 00:36:06;;;;;;;7.78;5.15;;;;;;;;;;527611;28;1052;-70
2023/10/17 00:36:21;;;;;;;7.82;5.30;;;;;;;;;;528361;28;873;-70
2023/10/17 00:36:36;;;;;;;6.90;5.30;;;;;;;;;;528385;28;846;-70
2023/10/17 00:37:00;;;;;;;7.43;5.40;;;;;;;;;;529758;27;1816;-70
2023/10/17 00:37:19;;;;;;;7.97;5.28;;;;;;;;;;529630;27;999;-70
2023/10/17 00:37:37;;;;;;;7.28;5.47;;;;;;;;;;532383;27;1098;-70
2023/10/17 00:37:56;;;;;;;8.80;5.78;;;;;;;;;;531290;27;1026;-70
2023/10/17 00:38:15;;;;;;;6.60;5.10;;;;;;;;;;530482;27;913;-70
2023/10/17 00:38:35;;;;;;;7.28;5.00;;;;;;;;;;530404;27;928;-70
2023/10/17 00:38:51;;;;;;;7.55;4.70;;;;;;;;;;531109;27;1027;-70
2023/10/17 00:39:11;;;;;;;6.87;4.70;;;;;;;;;;530094;27;1187;-70
2023/10/17 00:39:29;;;;;;;7.20;4.82;;;;;;;;;;530304;27;955;-71
2023/10/17 00:39:46;;;;;;;8.60;4.88;;;;;;;;;;527682;28;1341;-70
2023/10/17 00:40:13;;;;;;;7.05;4.80;;;;;;;;;;526325;28;908;-70
2023/10/17 00:40:35;;;;;;;6.70;4.95;;;;;;;;;;526040;28;905;-70
2023/10/17 00:40:53;;;;;;;6.20;4.72;;;;;;;;;;526015;28;1130;-71
2023/10/17 00:41:08;;;;;;;7.25;4.32;;;;;;;;;;525447;28;853;-70
2023/10/17 00:41:48;;;;;;;7.13;4.53;;;;;;;;;;524125;28;1230;-70
2023/10/17 00:42:34;;;;;;;5.50;4.20;;;;;;;;;;525815;28;869;-71
2023/10/17 00:42:49;;;;;;;5.80;4.28;;;;;;;;;;526646;28;901;-70
2023/10/17 00:43:11;;;;;;;5.80;4.27;;;;;;;;;;529704;27;826;-70
2023/10/17 00:43:30;;;;;;;5.80;4.28;;;;;;;;;;532634;27;960;-70
2023/10/17 00:43:45;;;;;;;5.68;4.07;;;;;;;;;;532523;27;971;-70
2023/10/17 00:44:00;;;;;;;5.50;3.90;;;;;;;;;;531780;27;1090;-70
2023/10/17 00:44:24;;;;;;;6.07;4.10;;;;;;;;;;527721;28;1167;-70
2023/10/17 00:44:41;;;;;;;7.93;4.28;;;;;;;;;;528111;28;885;-70
2023/10/17 00:44:58;;;;;;;6.82;4.22;;;;;;;;;;527961;28;1114;-70
2023/10/17 00:45:13;;;;;;;6.43;4.40;;;;;;;;;;528162;28;1004;-70
2023/10/17 00:45:29;;;;;;;6.40;4.15;;;;;;;;;;528212;28;858;-70
2023/10/17 00:45:45;;;;;;;5.60;3.72;;;;;;;;;;528259;28;948;-70
2023/10/17 00:46:01;;;;;;;5.57;3.75;;;;;;;;;;525800;28;932;-70
2023/10/17 00:46:16;;;;;;;5.43;3.80;;;;;;;;;;528034;27;1849;-71
2023/10/17 00:46:31;;;;;;;5.10;3.90;;;;;;;;;;530186;27;877;-70
2023/10/17 00:46:49;;;;;;;5.93;3.90;;;;;;;;;;530976;27;1063;-71
2023/10/17 00:47:06;;;;;;;6.38;4.07;;;;;;;;;;532625;27;806;-70
2023/10/17 00:47:22;;;;;;;6.15;4.07;;;;;;;;;;530235;27;1221;-70
2023/10/17 00:47:38;;;;;;;6.80;4.10;;;;;;;;;;528245;28;1289;-70
2023/10/17 00:47:53;;;;;;;5.93;4.13;;;;;;;;;;528141;28;1087;-71
2023/10/17 00:48:17;;;;;;;5.03;3.93;;;;;;;;;;528095;28;905;-71
2023/10/17 00:48:34;;;;;;;5.22;3.83;;;;;;;;;;528140;28;928;-70
2023/10/17 00:48:50;;;;;;;5.63;4.00;;;;;;;;;;527422;28;1011;-70
2023/10/17 00:49:06;;;;;;;5.78;4.00;;;;;;;;;;526017;28;1214;-70
2023/10/17 00:49:24;;;;;;;5.85;3.90;;;;;;;;;;526196;28;882;-71
2023/10/17 00:49:41;;;;;;;5.45;3.88;;;;;;;;;;528536;28;862;-70
2023/10/17 00:49:59;;;;;;;5.28;3.88;;;;;;;;;;529836;27;1056;-71
2023/10/17 00:50:15;;;;;;;6.55;4.25;;;;;;;;;;530272;27;857;-70
2023/10/17 00:50:31;;;;;;;6.85;4.03;;;;;;;;;;530660;27;913;-70
2023/10/17 00:50:50;;;;;;;6.05;3.80;;;;;;;;;;530682;27;1007;-71
2023/10/17 00:51:08;;;;;;;5.97;3.70;;;;;;;;;;532172;27;861;-71
2023/10/17 00:51:24;;;;;;;4.78;3.83;;;;;;;;;;530303;27;1272;-70
2023/10/17 00:51:39;;;;;;;5.88;4.10;;;;;;;;;;530224;27;852;-71
2023/10/17 00:51:59;;;;;;;6.37;4.30;;;;;;;;;;527971;28;1240;-70
2023/10/17 00:52:19;;;;;;;8.45;4.40;;;;;;;;;;527921;28;1611;-71
2023/10/17 00:52:34;;;;;;;6.43;4.20;;;;;;;;;;528315;28;913;-71
2023/10/17 00:52:50;;;;;;;5.90;4.10;;;;;;;;;;527817;28;1253;-70
2023/10/17 00:53:06;;;;;;;5.27;4.00;;;;;;;;;;524741;28;1408;-71
2023/10/17 00:53:23;;;;;;;5.43;4.10;;;;;;;;;;527884;28;1906;-70
2023/10/17 00:53:42;;;;;;;5.75;4.20;;;;;;;;;;528285;28;866;-70
2023/10/17 00:54:00;;;;;;;6.97;4.38;;;;;;;;;;529773;27;1006;-70
2023/10/17 00:54:18;;;;;;;7.85;4.60;;;;;;;;;;529968;27;1338;-71
2023/10/17 00:54:35;;;;;;;6.82;4.40;;;;;;;;;;530477;27;802;-71
2023/10/17 00:54:53;;;;;;;6.45;4.45;;;;;;;;;;527452;27;1844;-71
2023/10/17 00:55:11;;;;;;;6.72;4.60;;;;;;;;;;526277;28;990;-70
2023/10/17 00:55:26;;;;;;;6.38;4.70;;;;;;;;;;526188;28;898;-70
2023/10/17 00:55:51;;;;;;;6.47;4.47;;;;;;;;;;524047;28;838;-71
2023/10/17 00:56:07;;;;;;;6.25;4.20;;;;;;;;;;524142;28;886;-71
2023/10/17 00:56:26;;;;;;;6.55;4.35;;;;;;;;;;526023;28;842;-71
2023/10/17 00:56:43;;;;;;;5.88;4.30;;;;;;;;;;526132;28;905;-71
2023/10/17 00:57:05;;;;;;;5.60;4.30;;;;;;;;;;529897;27;1016;-70
2023/10/17 00:57:26;;;;;;;5.60;4.25;;;;;;;;;;530251;27;866;-70
2023/10/17 00:57:43;;;;;;;5.95;4.40;;;;;;;;;;532479;27;948;-71
2023/10/17 00:57:58;;;;;;;7.78;4.47;;;;;;;;;;532352;27;986;-71
2023/10/17 00:58:14;;;;;;;7.30;4.63;;;;;;;;;;531594;27;964;-71
2023/10/17 00:58:29;;;;;;;5.90;4.40;;;;;;;;;;530364;27;809;-71
2023/10/17 00:58:44;;;;;;;6.10;4.30;;;;;;;;;;530562;27;865;-70
2023/10/17 00:59:00;;;;;;;5.68;4.30;;;;;;;;;;530528;27;1087;-70
2023/10/17 00:59:15;;;;;;;5.63;4.13;;;;;;;;;;530268;27;858;-71
2023/10/17 00:59:30;;;;;;;6.43;4.37;;;;;;;;;;530229;27;925;-70
2023/10/17 00:59:53;;;;;;;6.15;4.43;;;;;;;;;;529786;27;1718;-70
2023/10/17 01:00:22;;;;;;;4.97;4.18;;;;;;;;;;530615;27;917;-70
2023/10/17 01:00:39;;;;;;;6.55;4.20;;;;;;;;;;528817;27;1090;-71
2023/10/17 01:01:15;;;;;;;7.13;4.50;;;;;;;;;;531522;27;1079;-70
2023/10/17 01:01:32;;;;;;;5.75;4.40;;;;;;;;;;532628;27;983;-70
2023/10/17 01:01:48;;;;;;;6.32;4.40;;;;;;;;;;529524;27;1591;-71
2023/10/17 01:02:10;;;;;;;6.60;4.50;;;;;;;;;;530032;27;1499;-71
2023/10/17 01:02:29;;;;;;;6.32;4.25;;;;;;;;;;528693;27;1071;-70
2023/10/17 01:02:45;;;;;;;6.00;4.20;;;;;;;;;;530174;27;1165;-71
2023/10/17 01:03:01;;;;;;;6.60;4.32;;;;;;;;;;532520;27;829;-70
2023/10/17 01:03:16;;;;;;;6.40;4.50;;;;;;;;;;532485;27;806;-71
2023/10/17 01:03:31;;;;;;;5.90;4.50;;;;;;;;;;532248;27;1148;-71
2023/10/17 01:03:51;;;;;;;6.00;4.50;;;;;;;;;;528958;27;1403;-70
2023/10/17 01:04:13;;;;;;;6.85;4.50;;;;;;;;;;528789;27;1329;-70
2023/10/17 01:04:28;;;;;;;7.45;4.43;;;;;;;;;;531610;27;909;-71
2023/10/17 01:04:44;;;;;;;6.35;4.20;;;;;;;;;;530549;27;967;-70
2023/10/17 01:05:00;;;;;;;6.15;4.28;;;;;;;;;;530583;27;872;-70
2023/10/17 01:05:16;;;;;;;5.67;4.00;;;;;;;;;;530440;27;896;-70
2023/10/17 01:05:57;;;;;;;5.95;4.10;;;;;;;;;;530585;27;948;-70
2023/10/17 01:06:53;;;;;;;5.55;3.97;;;;;;;;;;528268;28;1027;-70
2023/10/17 01:07:11;;;;;;;6.32;4.40;;;;;;;;;;530036;27;1463;-70
2023/10/17 01:07:29;;;;;;;6.70;4.40;;;;;;;;;;530351;27;1444;-71
2023/10/17 01:07:45;;;;;;;6.13;4.30;;;;;;;;;;530183;27;1634;-70
2023/10/17 01:08:00;;;;;;;5.33;4.27;;;;;;;;;;530472;27;905;-71
2023/10/17 01:08:15;;;;;;;7.00;4.60;;;;;;;;;;525906;28;1843;-70
2023/10/17 01:08:39;;;;;;;6.90;4.27;;;;;;;;;;528221;28;1919;-71
2023/10/17 01:08:56;;;;;;;5.10;3.90;;;;;;;;;;526393;28;1008;-70
2023/10/17 01:09:24;;;;;;;5.25;4.00;;;;;;;;;;526762;28;1877;-71
2023/10/17 01:09:39;;;;;;;5.88;4.15;;;;;;;;;;526304;28;976;-70
2023/10/17 01:10:07;;;;;;;6.03;4.33;;;;;;;;;;526709;28;1071;-70
2023/10/17 01:10:24;;;;;;;5.88;4.30;;;;;;;;;;529897;27;892;-70
2023/10/17 01:10:41;;;;;;;5.68;4.13;;;;;;;;;;530237;27;892;-71
2023/10/17 01:10:56;;;;;;;5.95;4.25;;;;;;;;;;530638;27;1058;-71
2023/10/17 01:11:20;;;;;;;5.90;4.32;;;;;;;;;;527550;28;1179;-71
2023/10/17 01:11:38;;;;;;;5.57;4.10;;;;;;;;;;525985;28;1008;-70
2023/10/17 01:11:57;;;;;;;5.97;4.50;;;;;;;;;;528329;27;1056;-70
2023/10/17 01:12:12;;;;;;;5.38;4.35;;;;;;;;;;528223;28;1375;-70
2023/10/17 01:12:30;;;;;;;5.37;4.17;;;;;;;;;;528201;28;888;-70
2023/10/17 01:13:03;;;;;;;5.88;4.30;;;;;;;;;;527981;28;1030;-70
2023/10/17 01:13:18;;;;;;;5.68;4.15;;;;;;;;;;530171;27;1909;-70
2023/10/17 01:13:37;;;;;;;6.83;4.27;;;;;;;;;;530470;27;905;-70
2023/10/17 01:13:52;;;;;;;7.60;4.32;;;;;;;;;;529228;27;1085;-70
2023/10/17 01:14:09;;;;;;;5.33;3.87;;;;;;;;;;528340;28;934;-70
2023/10/17 01:14:24;;;;;;;5.03;4.00;;;;;;;;;;528091;28;1296;-70
2023/10/17 01:14:40;;;;;;;5.80;4.40;;;;;;;;;;530157;27;782;-70
2023/10/17 01:14:55;;;;;;;6.50;4.40;;;;;;;;;;532444;27;1038;-70
2023/10/17 01:15:22;;;;;;;6.57;4.40;;;;;;;;;;532553;27;711;-70
2023/10/17 01:15:38;;;;;;;6.30;4.50;;;;;;;;;;532556;27;877;-71
2023/10/17 01:15:53;;;;;;;5.60;4.38;;;;;;;;;;531347;27;1054;-70
2023/10/17 01:16:15;;;;;;;5.80;4.40;;;;;;;;;;529868;27;759;-70
2023/10/17 01:16:34;;;;;;;6.75;4.40;;;;;;;;;;529715;27;1609;-70
2023/10/17 01:16:52;;;;;;;5.82;4.40;;;;;;;;;;530711;27;1230;-71
2023/10/17 01:17:12;;;;;;;6.95;4.45;;;;;;;;;;527544;28;1447;-70
2023/10/17 01:17:29;;;;;;;6.10;4.18;;;;;;;;;;528124;28;960;-70
2023/10/17 01:17:44;;;;;;;5.22;4.05;;;;;;;;;;528179;28;869;-70
2023/10/17 01:18:05;;;;;;;5.73;4.10;;;;;;;;;;530055;27;1210;-71
2023/10/17 01:18:20;;;;;;;6.95;4.47;;;;;;;;;;530387;27;869;-70
2023/10/17 01:18:37;;;;;;;5.93;4.38;;;;;;;;;;528705;27;1354;-70
2023/10/17 01:18:53;;;;;;;5.88;4.28;;;;;;;;;;528320;27;1805;-71
2023/10/17 01:19:11;;;;;;;6.25;4.38;;;;;;;;;;530328;27;2519;-70
2023/10/17 01:19:27;;;;;;;5.32;4.10;;;;;;;;;;530301;27;1751;-70
2023/10/17 01:19:42;;;;;;;4.97;3.97;;;;;;;;;;530492;27;1907;-71
2023/10/17 01:19:59;;;;;;;5.55;4.05;;;;;;;;;;530171;27;1055;-70
2023/10/17 01:20:20;;;;;;;5.80;4.20;;;;;;;;;;530304;27;924;-70
2023/10/17 01:20:36;;;;;;;5.20;4.25;;;;;;;;;;530587;27;877;-71
2023/10/17 01:20:53;;;;;;;5.17;4.30;;;;;;;;;;531051;27;1058;-70
2023/10/17 01:21:11;;;;;;;6.15;4.32;;;;;;;;;;532053;27;948;-70
2023/10/17 01:21:26;;;;;;;6.95;4.45;;;;;;;;;;532388;27;854;-70
2023/10/17 01:21:42;;;;;;;6.63;4.32;;;;;;;;;;532543;27;1052;-70
2023/10/17 01:21:57;;;;;;;6.30;4.10;;;;;;;;;;528271;27;1090;-70
2023/10/17 01:22:12;;;;;;;7.20;4.33;;;;;;;;;;526069;28;1155;-70
2023/10/17 01:22:32;;;;;;;7.03;4.47;;;;;;;;;;526101;28;960;-71
2023/10/17 01:22:48;;;;;;;6.53;4.38;;;;;;;;;;526304;28;1150;-70
2023/10/17 01:23:04;;;;;;;6.68;4.35;;;;;;;;;;528222;28;1270;-70
2023/10/17 01:23:20;;;;;;;6.28;4.28;;;;;;;;;;528102;28;873;-71
2023/10/17 01:23:35;;;;;;;6.03;4.35;;;;;;;;;;527941;28;867;-71
2023/10/17 01:23:51;;;;;;;6.93;4.33;;;;;;;;;;526901;28;1110;-70
2023/10/17 01:24:06;;;;;;;6.57;4.13;;;;;;;;;;528216;28;840;-71
2023/10/17 01:24:22;;;;;;;5.07;4.00;;;;;;;;;;528140;28;842;-70
2023/10/17 01:24:40;;;;;;;6.07;4.17;;;;;;;;;;528137;28;798;-70
2023/10/17 01:24:56;;;;;;;6.88;4.28;;;;;;;;;;528276;28;921;-71
2023/10/17 01:25:24;;;;;;;5.82;4.10;;;;;;;;;;528427;28;833;-70
2023/10/17 01:25:41;;;;;;;5.95;4.35;;;;;;;;;;530440;27;885;-71
2023/10/17 01:25:57;;;;;;;6.32;4.40;;;;;;;;;;531714;27;1070;-70
2023/10/17 01:26:20;;;;;;;5.67;4.20;;;;;;;;;;530529;27;1264;-70
2023/10/17 01:26:37;;;;;;;4.97;4.15;;;;;;;;;;530501;27;893;-71
2023/10/17 01:26:53;;;;;;;5.43;4.28;;;;;;;;;;531349;27;1078;-71
2023/10/17 01:27:12;;;;;;;5.73;4.57;;;;;;;;;;532686;27;833;-70
2023/10/17 01:27:28;;;;;;;5.57;4.25;;;;;;;;;;532335;27;1017;-70
2023/10/17 01:27:44;;;;;;;6.25;4.28;;;;;;;;;;532443;27;1045;-70
2023/10/17 01:28:00;;;;;;;6.43;4.35;;;;;;;;;;526194;28;850;-70
2023/10/17 01:28:15;;;;;;;6.60;4.50;;;;;;;;;;525975;28;794;-70
2023/10/17 01:28:30;;;;;;;6.07;4.23;;;;;;;;;;526017;28;886;-70
2023/10/17 01:28:45;;;;;;;6.57;3.95;;;;;;;;;;526286;28;1524;-70
2023/10/17 01:29:02;;;;;;;6.30;4.07;;;;;;;;;;530261;27;1412;-70
2023/10/17 01:29:18;;;;;;;6.07;4.28;;;;;;;;;;530285;27;860;-70
2023/10/17 01:29:34;;;;;;;7.20;4.53;;;;;;;;;;530124;27;876;-70
2023/10/17 01:29:49;;;;;;;6.05;4.47;;;;;;;;;;530700;27;1109;-70
2023/10/17 01:30:05;;;;;;;5.67;4.20;;;;;;;;;;532190;27;1051;-70
2023/10/17 01:30:22;;;;;;;5.20;4.10;;;;;;;;;;532262;27;829;-71
2023/10/17 01:30:37;;;;;;;5.72;4.10;;;;;;;;;;530770;27;901;-70
2023/10/17 01:30:55;;;;;;;6.40;4.33;;;;;;;;;;527945;28;1106;-70
2023/10/17 01:31:14;;;;;;;6.15;4.40;;;;;;;;;;527852;28;917;-70
2023/10/17 01:31:31;;;;;;;5.65;4.28;;;;;;;;;;528417;28;893;-70
2023/10/17 01:31:48;;;;;;;4.78;4.03;;;;;;;;;;528317;28;1114;-70
2023/10/17 01:32:05;;;;;;;5.40;3.85;;;;;;;;;;530439;27;1644;-70
2023/10/17 01:32:23;;;;;;;5.95;3.80;;;;;;;;;;530436;27;968;-70
2023/10/17 01:32:38;;;;;;;5.95;4.03;;;;;;;;;;528112;28;1254;-70
2023/10/17 01:32:54;;;;;;;6.20;4.33;;;;;;;;;;527992;28;1095;-70
2023/10/17 01:33:09;;;;;;;6.10;4.37;;;;;;;;;;528156;28;790;-70
2023/10/17 01:33:27;;;;;;;6.32;4.20;;;;;;;;;;528048;28;2009;-71
2023/10/17 01:33:43;;;;;;;6.80;4.18;;;;;;;;;;527942;28;936;-71
2023/10/17 01:33:59;;;;;;;5.97;4.20;;;;;;;;;;529783;27;1071;-71
2023/10/17 01:34:15;;;;;;;6.40;4.20;;;;;;;;;;530271;27;1104;-70
2023/10/17 01:34:30;;;;;;;6.57;4.35;;;;;;;;;;530159;27;881;-70
2023/10/17 01:34:47;;;;;;;5.63;4.20;;;;;;;;;;525362;28;1822;-70
2023/10/17 01:35:02;;;;;;;5.95;4.25;;;;;;;;;;527507;28;976;-70
2023/10/17 01:35:19;;;;;;;7.17;4.30;;;;;;;;;;526569;28;1108;-70
2023/10/17 01:35:36;;;;;;;6.13;4.10;;;;;;;;;;526083;28;893;-70
2023/10/17 01:35:52;;;;;;;5.68;4.20;;;;;;;;;;527573;28;1232;-70
2023/10/17 01:36:09;;;;;;;6.68;4.25;;;;;;;;;;527603;28;905;-71
2023/10/17 01:36:25;;;;;;;5.75;4.10;;;;;;;;;;525958;28;1226;-70
2023/10/17 01:36:42;;;;;;;5.53;4.30;;;;;;;;;;527230;28;909;-70
2023/10/17 01:36:57;;;;;;;5.55;4.28;;;;;;;;;;526002;28;1021;-70
2023/10/17 01:37:12;;;;;;;5.50;4.27;;;;;;;;;;525956;28;822;-71
2023/10/17 01:37:28;;;;;;;6.20;4.30;;;;;;;;;;526090;28;1044;-70
2023/10/17 01:37:43;;;;;;;6.60;4.40;;;;;;;;;;526878;28;732;-70
2023/10/17 01:37:58;;;;;;;6.27;4.30;;;;;;;;;;527523;28;1225;-70
2023/10/17 01:38:14;;;;;;;5.33;4.03;;;;;;;;;;528098;28;799;-70
2023/10/17 01:38:29;;;;;;;5.43;4.07;;;;;;;;;;529165;27;1779;-70
2023/10/17 01:38:46;;;;;;;5.70;4.13;;;;;;;;;;530459;27;845;-70
2023/10/17 01:39:06;;;;;;;5.97;4.25;;;;;;;;;;529141;27;1237;-70
2023/10/17 01:39:21;;;;;;;5.28;4.03;;;;;;;;;;527799;28;1579;-70
2023/10/17 01:39:37;;;;;;;5.50;4.00;;;;;;;;;;525998;28;862;-70
2023/10/17 01:39:53;;;;;;;6.43;4.18;;;;;;;;;;525800;28;1153;-71
2023/10/17 01:40:19;;;;;;;6.80;4.37;;;;;;;;;;525881;28;934;-70
2023/10/17 01:40:34;;;;;;;6.25;4.20;;;;;;;;;;527044;28;1259;-70
2023/10/17 01:40:49;;;;;;;6.13;4.27;;;;;;;;;;528324;27;1070;-70
2023/10/17 01:41:05;;;;;;;6.00;4.30;;;;;;;;;;527590;28;941;-70
2023/10/17 01:41:21;;;;;;;5.67;4.30;;;;;;;;;;526502;28;1079;-70
2023/10/17 01:41:38;;;;;;;5.50;4.20;;;;;;;;;;523810;28;1317;-71
2023/10/17 01:41:54;;;;;;;5.93;4.10;;;;;;;;;;525167;28;1107;-71
2023/10/17 01:42:09;;;;;;;5.43;4.20;;;;;;;;;;523726;28;1377;-70
2023/10/17 01:42:25;;;;;;;5.90;4.47;;;;;;;;;;524528;28;830;-70
2023/10/17 01:42:40;;;;;;;6.75;4.43;;;;;;;;;;525962;28;862;-71
2023/10/17 01:42:59;;;;;;;6.38;4.30;;;;;;;;;;526575;28;1044;-70
2023/10/17 01:43:15;;;;;;;5.50;4.00;;;;;;;;;;528086;28;889;-70
2023/10/17 01:43:36;;;;;;;5.13;4.13;;;;;;;;;;529326;27;897;-70
2023/10/17 01:43:52;;;;;;;5.43;4.30;;;;;;;;;;530021;27;1034;-70
2023/10/17 01:44:08;;;;;;;6.10;4.17;;;;;;;;;;530228;27;1456;-70
2023/10/17 01:44:24;;;;;;;5.95;4.28;;;;;;;;;;529944;27;893;-70
2023/10/17 01:44:39;;;;;;;6.27;4.20;;;;;;;;;;529394;27;809;-70
2023/10/17 01:44:54;;;;;;;6.47;4.00;;;;;;;;;;529304;27;1047;-70
2023/10/17 01:45:14;;;;;;;5.63;3.92;;;;;;;;;;530174;27;933;-70
2023/10/17 01:45:30;;;;;;;4.93;3.63;;;;;;;;;;527893;28;1257;-70
2023/10/17 01:45:48;;;;;;;5.13;3.80;;;;;;;;;;527965;28;1307;-70
2023/10/17 01:46:05;;;;;;;5.60;3.90;;;;;;;;;;525472;28;873;-70
2023/10/17 01:46:24;;;;;;;5.65;3.90;;;;;;;;;;525836;28;1392;-70
2023/10/17 01:46:39;;;;;;;5.15;4.00;;;;;;;;;;526056;28;898;-70
2023/10/17 01:46:54;;;;;;;5.43;4.10;;;;;;;;;;526003;28;1009;-70
2023/10/17 01:47:09;;;;;;;6.23;4.17;;;;;;;;;;526049;28;972;-70
2023/10/17 01:47:26;;;;;;;8.45;4.35;;;;;;;;;;527325;28;1187;-70
2023/10/17 01:47:41;;;;;;;7.38;4.00;;;;;;;;;;527197;28;1816;-70
2023/10/17 01:47:58;;;;;;;4.80;4.03;;;;;;;;;;528078;27;1043;-70
2023/10/17 01:48:13;;;;;;;5.10;4.22;;;;;;;;;;529748;27;960;-71
2023/10/17 01:48:29;;;;;;;5.20;4.20;;;;;;;;;;529946;27;993;-70
2023/10/17 01:48:47;;;;;;;6.13;4.10;;;;;;;;;;530316;27;807;-70
2023/10/17 01:49:10;;;;;;;6.88;4.28;;;;;;;;;;527848;28;889;-70
2023/10/17 01:49:27;;;;;;;6.38;4.20;;;;;;;;;;527408;28;1672;-71
2023/10/17 01:49:42;;;;;;;5.78;3.97;;;;;;;;;;527931;28;1712;-70
2023/10/17 01:49:58;;;;;;;4.90;3.80;;;;;;;;;;525828;28;1275;-71
2023/10/17 01:50:13;;;;;;;5.77;4.20;;;;;;;;;;523879;28;1181;-70
2023/10/17 01:50:28;;;;;;;6.90;4.30;;;;;;;;;;523662;28;878;-70
2023/10/17 01:50:44;;;;;;;6.33;4.20;;;;;;;;;;523949;28;922;-70
2023/10/17 01:51:06;;;;;;;6.50;4.40;;;;;;;;;;525757;28;1238;-71
2023/10/17 01:51:23;;;;;;;6.47;4.20;;;;;;;;;;526178;28;854;-71
2023/10/17 01:51:44;;;;;;;5.15;3.80;;;;;;;;;;526113;28;846;-70
2023/10/17 01:52:00;;;;;;;5.10;3.85;;;;;;;;;;526056;28;878;-70
2023/10/17 01:52:15;;;;;;;6.10;4.13;;;;;;;;;;528184;28;802;-70